Terminal Aerodrome Forecast
Issued by NWS

Home | Current Version | Previous Version | Text Only | Print | Product List | Glossary On
Versions: 1 2 3 4 5 6 7 8 9 10 11 12 13 14 15 16
000
FTUS45 KRIW 200500
TAFJAC
TAF
KJAC 200520Z 2006/2106 22008KT 6SM -SN SCT018 OVC035
     FM200900 20007KT 4SM -SN BKN016
     FM201400 VRB06KT P6SM VCSH SCT025 BKN045
     FM202100 21013KT 4SM -SN OVC025
     FM210500 21013KT 2SM -SN OVC015
      AMD LTD TO CLD VIS AND WIND=

USA.gov is the U.S. government's official web portal to all federal, state and local government web resources and services.